Time;durP1;ratioP1;P1;durP2;ratioP2;P2;SDS_P1;SDS_P2;PMS_P1;PMS_P2;Temp;Humidity;BMP_temperature;BMP_pressure;BME280_temperature;BME280_humidity;BME280_pressure;Samples;Min_cycle;Max_cycle;Signal;HPM_P1;HPM_P2
2022/01/07 00:00:18;;;;;;;16.75;5.80;;;;;;;;;;5066415;28;20052;-63
2022/01/07 00:02:49;;;;;;;19.27;6.72;;;;;;;;;;5047213;28;20040;-62
2022/01/07 00:05:15;;;;;;;18.67;6.05;;;;;;;;;;5098618;28;20512;-62
2022/01/07 00:07:41;;;;;;;21.77;6.68;;;;;;;;;;5102729;28;20132;-62
2022/01/07 00:10:09;;;;;;;15.85;5.75;;;;;;;;;;5098718;28;20497;-62
2022/01/07 00:12:35;;;;;;;19.98;6.10;;;;;;;;;;5081707;28;20044;-61
2022/01/07 00:15:01;;;;;;;14.07;6.55;;;;;;;;;;5102726;28;20518;-62
2022/01/07 00:17:27;;;;;;;15.95;5.40;;;;;;;;;;5086739;28;20039;-62
2022/01/07 00:19:54;;;;;;;21.00;7.50;;;;;;;;;;5064922;28;20040;-62
2022/01/07 00:22:20;;;;;;;17.13;6.53;;;;;;;;;;5085633;28;21321;-62
2022/01/07 00:24:46;;;;;;;19.83;7.00;;;;;;;;;;5099162;28;20366;-62
2022/01/07 00:27:12;;;;;;;21.02;7.25;;;;;;;;;;5081822;28;20477;-62
2022/01/07 00:29:38;;;;;;;20.38;7.30;;;;;;;;;;5066519;28;20158;-63
2022/01/07 00:32:04;;;;;;;15.32;5.88;;;;;;;;;;5063635;28;20047;-63
2022/01/07 00:34:30;;;;;;;18.80;6.82;;;;;;;;;;5089657;28;20040;-63
2022/01/07 00:36:56;;;;;;;18.52;6.53;;;;;;;;;;5080303;28;20480;-63
2022/01/07 00:39:22;;;;;;;19.40;7.57;;;;;;;;;;5073522;28;20560;-61
2022/01/07 00:41:48;;;;;;;21.15;7.35;;;;;;;;;;5061655;28;20601;-62
2022/01/07 00:44:14;;;;;;;23.25;8.00;;;;;;;;;;5061004;28;20454;-62
2022/01/07 00:46:40;;;;;;;20.05;6.13;;;;;;;;;;5085783;28;20203;-62
2022/01/07 00:49:06;;;;;;;17.48;6.15;;;;;;;;;;5099226;28;20036;-61
2022/01/07 00:51:32;;;;;;;18.40;6.07;;;;;;;;;;5085273;28;20051;-61
2022/01/07 00:53:59;;;;;;;20.88;6.60;;;;;;;;;;5065149;28;20484;-63
2022/01/07 00:56:25;;;;;;;18.73;7.30;;;;;;;;;;5097524;28;20055;-62
2022/01/07 00:58:51;;;;;;;22.70;7.82;;;;;;;;;;5077826;28;20123;-62
2022/01/07 01:01:17;;;;;;;15.65;6.15;;;;;;;;;;5045610;28;20043;-62
2022/01/07 01:03:43;;;;;;;19.88;6.82;;;;;;;;;;5081823;28;20536;-62
2022/01/07 01:06:10;;;;;;;18.50;6.50;;;;;;;;;;5080886;28;20111;-62
2022/01/07 01:08:36;;;;;;;22.42;7.57;;;;;;;;;;5099176;28;20039;-62
2022/01/07 01:11:02;;;;;;;22.85;8.02;;;;;;;;;;5103484;28;20035;-64
2022/01/07 01:13:31;;;;;;;21.63;8.05;;;;;;;;;;5081952;28;20427;-63
2022/01/07 01:15:57;;;;;;;20.35;8.30;;;;;;;;;;5086521;28;20043;-61
2022/01/07 01:18:23;;;;;;;19.02;8.85;;;;;;;;;;5076786;28;20074;-61
2022/01/07 01:20:49;;;;;;;22.80;9.45;;;;;;;;;;5082659;28;20047;-61
2022/01/07 01:23:15;;;;;;;19.42;8.45;;;;;;;;;;5094292;28;20033;-62
2022/01/07 01:25:42;;;;;;;21.20;8.63;;;;;;;;;;5080955;28;20036;-62
2022/01/07 01:28:08;;;;;;;20.05;9.27;;;;;;;;;;5084237;28;20060;-63
2022/01/07 01:30:35;;;;;;;25.20;10.52;;;;;;;;;;5062791;28;20059;-61
2022/01/07 01:33:01;;;;;;;20.90;8.50;;;;;;;;;;5094731;28;20578;-63
2022/01/07 01:35:27;;;;;;;22.45;9.38;;;;;;;;;;5100144;28;20533;-63
2022/01/07 01:37:54;;;;;;;23.70;10.18;;;;;;;;;;5057824;28;20454;-62
2022/01/07 01:40:20;;;;;;;22.33;8.93;;;;;;;;;;5061738;28;20052;-63
2022/01/07 01:42:47;;;;;;;21.25;8.48;;;;;;;;;;5104266;28;20031;-61
2022/01/07 01:45:16;;;;;;;22.38;9.75;;;;;;;;;;5080238;28;20408;-61
2022/01/07 01:47:42;;;;;;;19.52;7.93;;;;;;;;;;5082822;28;20039;-61
2022/01/07 01:50:09;;;;;;;19.73;7.85;;;;;;;;;;5072432;28;20118;-61
2022/01/07 01:52:36;;;;;;;14.93;6.65;;;;;;;;;;5071520;28;20036;-61
2022/01/07 01:55:03;;;;;;;18.77;7.82;;;;;;;;;;5093426;28;20039;-63
2022/01/07 01:57:29;;;;;;;20.77;8.85;;;;;;;;;;5077532;28;20040;-61
2022/01/07 01:59:55;;;;;;;18.85;8.23;;;;;;;;;;5076726;28;20183;-61
2022/01/07 02:02:21;;;;;;;18.65;7.78;;;;;;;;;;5075256;28;20315;-61
2022/01/07 02:04:47;;;;;;;20.75;8.55;;;;;;;;;;5075642;28;20036;-61
2022/01/07 02:07:13;;;;;;;24.23;9.52;;;;;;;;;;5073493;28;20151;-61
2022/01/07 02:09:39;;;;;;;19.27;8.70;;;;;;;;;;5075682;28;20028;-62
2022/01/07 02:12:06;;;;;;;18.85;7.93;;;;;;;;;;5079938;28;20050;-63
2022/01/07 02:14:34;;;;;;;19.02;8.60;;;;;;;;;;5073638;28;20650;-61
2022/01/07 02:17:10;;;;;;;23.83;9.95;;;;;;;;;;5082092;28;20750;-61
2022/01/07 02:19:37;;;;;;;21.02;9.82;;;;;;;;;;5078926;28;20100;-62
2022/01/07 02:22:03;;;;;;;19.88;8.98;;;;;;;;;;5102083;28;20039;-62
2022/01/07 02:24:29;;;;;;;17.60;9.20;;;;;;;;;;5058617;28;20047;-63
2022/01/07 02:26:56;;;;;;;19.33;8.90;;;;;;;;;;5079300;28;20493;-63
2022/01/07 02:29:22;;;;;;;20.17;9.10;;;;;;;;;;5078662;28;20076;-62
2022/01/07 02:31:48;;;;;;;20.73;10.27;;;;;;;;;;5092705;28;20039;-62
2022/01/07 02:34:15;;;;;;;20.80;9.32;;;;;;;;;;5064362;28;20054;-63
2022/01/07 02:36:42;;;;;;;15.52;9.52;;;;;;;;;;5060913;28;20133;-63
2022/01/07 02:39:08;;;;;;;21.20;9.15;;;;;;;;;;5078144;28;20485;-63
2022/01/07 02:41:34;;;;;;;21.38;11.18;;;;;;;;;;5083127;28;20101;-63
2022/01/07 02:44:00;;;;;;;16.80;10.05;;;;;;;;;;5093874;28;20108;-63
2022/01/07 02:46:26;;;;;;;25.58;11.80;;;;;;;;;;5080828;28;20028;-64
2022/01/07 02:48:52;;;;;;;26.55;11.63;;;;;;;;;;5078676;28;20130;-63
2022/01/07 02:51:18;;;;;;;21.55;12.32;;;;;;;;;;5097385;28;20545;-63
2022/01/07 02:53:44;;;;;;;17.15;11.10;;;;;;;;;;5081530;28;20118;-64
2022/01/07 02:56:11;;;;;;;19.65;9.80;;;;;;;;;;5060423;28;20512;-63
2022/01/07 02:58:37;;;;;;;21.35;12.85;;;;;;;;;;5077422;28;20035;-63
2022/01/07 03:01:04;;;;;;;23.80;12.55;;;;;;;;;;5076328;28;20051;-63
2022/01/07 03:03:30;;;;;;;27.40;14.43;;;;;;;;;;5074693;28;20032;-63
2022/01/07 03:05:56;;;;;;;22.73;13.95;;;;;;;;;;5073409;28;20094;-63
2022/01/07 03:08:22;;;;;;;19.63;11.90;;;;;;;;;;5057843;28;20139;-63
2022/01/07 03:10:48;;;;;;;24.15;12.63;;;;;;;;;;5077557;28;20042;-63
2022/01/07 03:13:14;;;;;;;21.25;12.80;;;;;;;;;;5076440;28;20047;-63
2022/01/07 03:15:40;;;;;;;18.05;11.75;;;;;;;;;;5079650;28;20370;-62
2022/01/07 03:18:08;;;;;;;20.48;12.60;;;;;;;;;;5094313;28;20040;-61
2022/01/07 03:20:38;;;;;;;13.77;9.68;;;;;;;;;;5078425;28;20051;-62
2022/01/07 03:23:09;;;;;;;22.15;12.15;;;;;;;;;;5057211;28;20040;-62
2022/01/07 03:25:35;;;;;;;20.77;13.38;;;;;;;;;;5093878;28;20050;-62
2022/01/07 03:28:02;;;;;;;19.48;12.55;;;;;;;;;;5064507;28;20089;-62
2022/01/07 03:30:28;;;;;;;17.83;12.13;;;;;;;;;;5066103;28;20070;-62
2022/01/07 03:32:54;;;;;;;19.95;12.57;;;;;;;;;;5090418;28;20032;-62
2022/01/07 03:35:21;;;;;;;15.90;11.18;;;;;;;;;;5082502;28;20730;-63
2022/01/07 03:37:49;;;;;;;19.45;13.65;;;;;;;;;;5074380;28;20040;-62
2022/01/07 03:40:15;;;;;;;21.88;12.57;;;;;;;;;;5076436;28;20035;-61
2022/01/07 03:42:42;;;;;;;19.15;11.55;;;;;;;;;;5054962;28;20119;-61
2022/01/07 03:45:09;;;;;;;18.17;12.88;;;;;;;;;;5096411;28;20032;-61
2022/01/07 03:47:35;;;;;;;17.70;11.55;;;;;;;;;;5062858;28;20070;-61
2022/01/07 03:50:01;;;;;;;17.15;13.55;;;;;;;;;;5093987;28;20048;-61
2022/01/07 03:52:27;;;;;;;18.88;13.55;;;;;;;;;;5078436;28;20084;-61
2022/01/07 03:54:53;;;;;;;18.63;12.30;;;;;;;;;;5073782;28;20826;-61
2022/01/07 03:57:20;;;;;;;18.48;13.00;;;;;;;;;;5060323;28;20115;-62
2022/01/07 03:59:47;;;;;;;21.80;14.93;;;;;;;;;;5099177;28;20048;-61
2022/01/07 04:02:13;;;;;;;19.55;12.98;;;;;;;;;;5078654;28;20378;-62
2022/01/07 04:04:39;;;;;;;20.48;14.50;;;;;;;;;;5092512;28;20046;-61
2022/01/07 04:07:05;;;;;;;21.45;13.32;;;;;;;;;;5062756;28;20074;-61
2022/01/07 04:09:31;;;;;;;20.85;12.80;;;;;;;;;;5077265;28;20405;-61
2022/01/07 04:11:59;;;;;;;16.85;13.13;;;;;;;;;;5074627;28;20032;-63
2022/01/07 04:14:25;;;;;;;19.52;13.82;;;;;;;;;;5059935;28;20136;-63
2022/01/07 04:16:52;;;;;;;16.45;14.07;;;;;;;;;;5075806;28;20523;-63
2022/01/07 04:19:18;;;;;;;17.95;11.88;;;;;;;;;;5077020;28;20043;-63
2022/01/07 04:21:46;;;;;;;12.25;8.88;;;;;;;;;;5060667;28;20035;-63
2022/01/07 04:24:12;;;;;;;19.52;14.02;;;;;;;;;;5080865;28;20046;-63
2022/01/07 04:26:38;;;;;;;19.85;16.10;;;;;;;;;;5077857;28;20039;-63
2022/01/07 04:29:04;;;;;;;19.67;15.48;;;;;;;;;;5098356;28;20051;-63
2022/01/07 04:31:30;;;;;;;18.30;13.85;;;;;;;;;;5051306;28;20040;-63
2022/01/07 04:33:57;;;;;;;22.33;16.13;;;;;;;;;;5078148;28;20039;-62
2022/01/07 04:36:23;;;;;;;16.52;12.35;;;;;;;;;;5073847;28;20085;-62
2022/01/07 04:38:49;;;;;;;18.27;13.60;;;;;;;;;;5098667;28;20106;-62
2022/01/07 04:41:15;;;;;;;20.52;16.08;;;;;;;;;;5079273;28;20109;-62
2022/01/07 04:43:41;;;;;;;20.98;17.30;;;;;;;;;;5101753;28;20075;-63
2022/01/07 04:46:07;;;;;;;22.10;17.20;;;;;;;;;;5105461;28;20122;-62
2022/01/07 04:48:33;;;;;;;19.67;14.23;;;;;;;;;;5082255;28;20036;-62
2022/01/07 04:50:59;;;;;;;19.67;16.75;;;;;;;;;;5082147;28;20115;-61
2022/01/07 04:53:26;;;;;;;20.10;17.02;;;;;;;;;;5064272;28;20491;-62
2022/01/07 04:55:53;;;;;;;20.90;15.63;;;;;;;;;;5065639;28;20104;-62
2022/01/07 04:58:19;;;;;;;23.05;17.50;;;;;;;;;;5097584;28;20046;-63
2022/01/07 05:00:46;;;;;;;23.85;16.90;;;;;;;;;;5080100;28;20075;-62
2022/01/07 05:03:14;;;;;;;19.30;15.48;;;;;;;;;;5081122;28;20048;-63
2022/01/07 05:05:43;;;;;;;19.77;16.88;;;;;;;;;;5079209;28;20653;-63
2022/01/07 05:08:09;;;;;;;21.00;14.90;;;;;;;;;;5080424;28;20475;-63
2022/01/07 05:10:37;;;;;;;17.23;14.15;;;;;;;;;;5066065;28;20039;-63
2022/01/07 05:13:03;;;;;;;20.63;14.80;;;;;;;;;;5079314;28;20066;-62
2022/01/07 05:15:29;;;;;;;21.75;15.25;;;;;;;;;;5078069;28;20040;-63
2022/01/07 05:17:55;;;;;;;21.05;16.00;;;;;;;;;;5081559;28;20068;-62
2022/01/07 05:20:21;;;;;;;20.15;16.85;;;;;;;;;;5080824;28;20064;-63
2022/01/07 05:22:48;;;;;;;19.48;14.55;;;;;;;;;;5083324;28;20040;-63
2022/01/07 05:25:14;;;;;;;18.90;14.57;;;;;;;;;;5078901;28;20035;-63
2022/01/07 05:27:41;;;;;;;18.45;14.65;;;;;;;;;;5066873;28;20444;-64
2022/01/07 05:30:08;;;;;;;19.38;14.70;;;;;;;;;;5100940;28;20043;-63
2022/01/07 05:32:34;;;;;;;16.33;13.07;;;;;;;;;;5079990;28;20450;-63
2022/01/07 05:35:01;;;;;;;18.25;14.63;;;;;;;;;;5097470;28;20051;-63
2022/01/07 05:37:27;;;;;;;19.05;14.80;;;;;;;;;;5065320;28;20046;-62
2022/01/07 05:39:55;;;;;;;20.00;14.52;;;;;;;;;;5082927;28;20083;-62
2022/01/07 05:42:21;;;;;;;16.58;13.63;;;;;;;;;;5098095;28;20047;-62
2022/01/07 05:44:48;;;;;;;16.75;13.55;;;;;;;;;;5061160;28;20043;-62
2022/01/07 05:47:14;;;;;;;17.95;12.93;;;;;;;;;;5097070;28;20036;-63
2022/01/07 05:49:40;;;;;;;14.82;11.82;;;;;;;;;;5094600;28;20036;-62
2022/01/07 05:52:06;;;;;;;15.40;10.52;;;;;;;;;;5077332;28;20059;-62
2022/01/07 05:54:33;;;;;;;16.70;12.02;;;;;;;;;;5077703;28;20473;-62
2022/01/07 05:56:59;;;;;;;15.30;13.52;;;;;;;;;;5096556;28;20051;-61
2022/01/07 05:59:26;;;;;;;17.00;13.70;;;;;;;;;;5080046;28;20047;-62
2022/01/07 06:01:52;;;;;;;15.65;12.63;;;;;;;;;;5080455;28;20439;-63
2022/01/07 06:04:18;;;;;;;14.48;12.30;;;;;;;;;;5061711;28;20035;-63
2022/01/07 06:06:44;;;;;;;15.75;12.60;;;;;;;;;;5081032;28;20054;-64
2022/01/07 06:09:10;;;;;;;15.65;12.68;;;;;;;;;;5081385;28;20117;-62
2022/01/07 06:11:36;;;;;;;17.15;12.98;;;;;;;;;;5095599;28;20089;-62
2022/01/07 06:14:02;;;;;;;17.88;11.98;;;;;;;;;;5058149;28;20074;-63
2022/01/07 06:16:28;;;;;;;14.77;12.43;;;;;;;;;;5075960;28;20123;-62
2022/01/07 06:18:55;;;;;;;14.25;10.60;;;;;;;;;;5075182;28;20132;-62
2022/01/07 06:21:21;;;;;;;16.13;11.38;;;;;;;;;;5079381;28;20413;-63
2022/01/07 06:23:47;;;;;;;15.50;12.77;;;;;;;;;;5078571;28;20036;-63
2022/01/07 06:26:13;;;;;;;15.65;10.73;;;;;;;;;;5077429;28;20635;-63
2022/01/07 06:28:39;;;;;;;17.35;13.27;;;;;;;;;;5074993;28;20055;-62
2022/01/07 06:31:05;;;;;;;17.45;12.25;;;;;;;;;;5072834;28;20076;-64
2022/01/07 06:33:31;;;;;;;20.67;13.57;;;;;;;;;;5058874;28;20082;-63
2022/01/07 06:35:57;;;;;;;16.83;12.85;;;;;;;;;;5074745;28;20491;-62
2022/01/07 06:38:24;;;;;;;16.13;13.20;;;;;;;;;;5076642;28;20061;-64
2022/01/07 06:40:50;;;;;;;17.70;12.57;;;;;;;;;;5077157;28;20044;-63
2022/01/07 06:43:16;;;;;;;21.75;13.23;;;;;;;;;;5073393;28;20044;-63
2022/01/07 06:45:42;;;;;;;18.02;11.75;;;;;;;;;;5074915;28;20131;-62
2022/01/07 06:48:08;;;;;;;18.92;12.82;;;;;;;;;;5072887;28;20413;-63
2022/01/07 06:50:34;;;;;;;13.27;9.73;;;;;;;;;;5077963;28;20028;-63
2022/01/07 06:53:00;;;;;;;17.35;11.52;;;;;;;;;;5078237;28;20040;-64
2022/01/07 06:55:26;;;;;;;14.77;11.13;;;;;;;;;;5053874;28;20036;-64
2022/01/07 06:57:52;;;;;;;15.20;12.13;;;;;;;;;;5073180;28;20534;-64
2022/01/07 07:00:18;;;;;;;15.55;12.00;;;;;;;;;;5056438;28;20378;-63
2022/01/07 07:02:44;;;;;;;14.63;9.23;;;;;;;;;;5077855;28;20398;-63
2022/01/07 07:05:10;;;;;;;15.65;11.68;;;;;;;;;;5071543;28;20035;-64
2022/01/07 07:07:36;;;;;;;17.00;12.73;;;;;;;;;;5055345;28;20041;-63
2022/01/07 07:10:03;;;;;;;17.02;13.13;;;;;;;;;;5072915;28;20123;-64
2022/01/07 07:12:29;;;;;;;16.23;13.65;;;;;;;;;;5073664;28;20024;-64
2022/01/07 07:14:55;;;;;;;15.23;12.38;;;;;;;;;;5077323;28;20058;-63
2022/01/07 07:17:23;;;;;;;16.42;11.63;;;;;;;;;;5080416;28;20044;-63
2022/01/07 07:19:49;;;;;;;14.70;11.95;;;;;;;;;;5078425;28;20059;-63
2022/01/07 07:22:16;;;;;;;13.88;11.40;;;;;;;;;;5076176;28;20104;-63
2022/01/07 07:24:42;;;;;;;16.73;13.90;;;;;;;;;;5093803;28;20084;-63
2022/01/07 07:27:08;;;;;;;18.65;14.35;;;;;;;;;;5094941;28;20441;-61
2022/01/07 07:29:34;;;;;;;15.10;13.60;;;;;;;;;;5083127;28;20036;-62
2022/01/07 07:32:05;;;;;;;16.77;13.52;;;;;;;;;;5090729;28;20089;-63
2022/01/07 07:37:07;;;;;;;19.52;14.98;;;;;;;;;;5096668;28;20550;-61
2022/01/07 07:39:34;;;;;;;17.70;14.55;;;;;;;;;;5094023;28;20048;-62
2022/01/07 07:42:00;;;;;;;15.65;14.07;;;;;;;;;;5066689;28;20275;-62
2022/01/07 07:44:26;;;;;;;17.83;14.95;;;;;;;;;;5079743;28;20493;-62
2022/01/07 07:46:52;;;;;;;16.35;13.95;;;;;;;;;;5095780;28;20481;-62
2022/01/07 07:49:18;;;;;;;19.58;15.13;;;;;;;;;;5097404;28;20121;-62
2022/01/07 07:51:46;;;;;;;16.20;14.52;;;;;;;;;;5061234;28;20047;-61
2022/01/07 07:54:13;;;;;;;19.40;15.13;;;;;;;;;;5091336;28;20044;-62
2022/01/07 07:56:39;;;;;;;20.65;15.57;;;;;;;;;;5073124;28;20050;-62
2022/01/07 07:59:05;;;;;;;16.13;14.40;;;;;;;;;;5062010;28;20044;-61
2022/01/07 08:01:31;;;;;;;20.08;15.88;;;;;;;;;;5093961;28;20090;-64
2022/01/07 08:03:57;;;;;;;18.63;16.10;;;;;;;;;;5059344;28;20046;-62
2022/01/07 08:06:24;;;;;;;18.77;15.10;;;;;;;;;;5080977;28;20082;-63
2022/01/07 08:08:50;;;;;;;18.33;16.42;;;;;;;;;;5078895;28;20047;-62
2022/01/07 08:11:16;;;;;;;17.73;15.25;;;;;;;;;;5084160;28;20040;-63
2022/01/07 08:16:28;;;;;;;17.35;15.18;;;;;;;;;;5078294;28;20080;-64
2022/01/07 08:18:55;;;;;;;21.10;15.80;;;;;;;;;;5075885;28;20048;-64
2022/01/07 08:21:25;;;;;;;18.35;13.68;;;;;;;;;;5076302;28;20541;-63
2022/01/07 08:23:53;;;;;;;18.85;15.32;;;;;;;;;;5075785;28;20039;-63
2022/01/07 08:26:19;;;;;;;22.20;16.75;;;;;;;;;;5080654;28;20052;-62
2022/01/07 08:28:51;;;;;;;20.65;16.70;;;;;;;;;;5084243;28;20482;-63
2022/01/07 08:36:41;;;;;;;23.05;16.63;;;;;;;;;;5078019;28;20384;-62
2022/01/07 08:39:08;;;;;;;22.63;16.23;;;;;;;;;;5074900;28;20493;-63
2022/01/07 08:41:35;;;;;;;21.02;16.83;;;;;;;;;;5078158;28;20043;-63
2022/01/07 08:44:01;;;;;;;24.48;17.25;;;;;;;;;;5052302;28;20047;-63
2022/01/07 08:46:30;;;;;;;25.50;18.58;;;;;;;;;;5078978;28;20044;-63
2022/01/07 08:48:57;;;;;;;26.52;19.55;;;;;;;;;;5076905;28;20414;-63
2022/01/07 08:51:23;;;;;;;29.08;18.98;;;;;;;;;;5080002;28;20044;-63
2022/01/07 08:53:50;;;;;;;24.10;18.77;;;;;;;;;;5076660;28;20047;-62
2022/01/07 08:56:23;;;;;;;26.42;18.40;;;;;;;;;;5076339;28;20119;-63
2022/01/07 08:58:50;;;;;;;28.55;21.00;;;;;;;;;;5059886;28;20048;-63
2022/01/07 09:01:16;;;;;;;28.08;18.77;;;;;;;;;;5082618;28;20371;-62
2022/01/07 09:03:42;;;;;;;28.73;19.63;;;;;;;;;;5075126;28;20483;-64
2022/01/07 09:06:08;;;;;;;27.75;18.83;;;;;;;;;;5059577;28;20041;-62
2022/01/07 09:08:35;;;;;;;29.02;19.88;;;;;;;;;;5078874;28;20040;-62
2022/01/07 09:11:01;;;;;;;25.63;19.38;;;;;;;;;;5075679;28;20040;-66
2022/01/07 09:13:27;;;;;;;32.38;20.05;;;;;;;;;;5057413;28;20383;-64
2022/01/07 09:15:54;;;;;;;29.45;20.33;;;;;;;;;;5071589;28;20055;-64
2022/01/07 09:18:21;;;;;;;33.58;19.38;;;;;;;;;;5081211;28;20114;-62
2022/01/07 09:20:47;;;;;;;23.27;20.10;;;;;;;;;;5077366;28;20043;-63
2022/01/07 09:23:14;;;;;;;31.88;20.48;;;;;;;;;;5066697;28;20089;-64
2022/01/07 09:25:40;;;;;;;33.67;22.23;;;;;;;;;;5078989;28;20044;-63
2022/01/07 09:28:08;;;;;;;31.70;22.67;;;;;;;;;;5062664;28;20476;-62
2022/01/07 09:30:35;;;;;;;28.85;19.75;;;;;;;;;;5080950;28;20111;-63
2022/01/07 09:33:01;;;;;;;29.92;21.42;;;;;;;;;;5061480;28;20393;-63
2022/01/07 09:35:27;;;;;;;29.10;20.80;;;;;;;;;;5077205;28;20040;-62
2022/01/07 09:37:54;;;;;;;29.33;20.75;;;;;;;;;;5060440;28;20048;-62
2022/01/07 09:40:20;;;;;;;29.02;20.80;;;;;;;;;;5078264;28;20505;-62
2022/01/07 09:43:13;;;;;;;32.00;22.42;;;;;;;;;;5080953;28;20036;-63
2022/01/07 09:45:39;;;;;;;32.92;22.63;;;;;;;;;;5077568;28;20493;-63
2022/01/07 09:48:06;;;;;;;31.38;21.50;;;;;;;;;;5079841;28;20063;-62
2022/01/07 09:50:33;;;;;;;30.85;22.50;;;;;;;;;;5061024;28;20501;-62
2022/01/07 09:53:04;;;;;;;34.22;21.83;;;;;;;;;;5076604;28;20079;-62
2022/01/07 09:55:30;;;;;;;34.05;22.27;;;;;;;;;;5078023;28;20230;-62
2022/01/07 09:57:56;;;;;;;30.30;21.98;;;;;;;;;;5074149;28;20456;-61
2022/01/07 10:00:22;;;;;;;31.65;20.92;;;;;;;;;;5055728;28;20040;-61
2022/01/07 10:02:59;;;;;;;40.50;22.90;;;;;;;;;;5076938;28;20048;-62
2022/01/07 10:05:25;;;;;;;30.77;19.40;;;;;;;;;;5074224;28;20046;-61
2022/01/07 10:07:51;;;;;;;26.73;18.13;;;;;;;;;;5072202;28;20470;-61
2022/01/07 10:10:19;;;;;;;33.20;21.35;;;;;;;;;;5075802;28;20044;-62
2022/01/07 10:12:49;;;;;;;30.60;21.13;;;;;;;;;;5059083;28;20048;-63
2022/01/07 10:15:16;;;;;;;32.97;19.92;;;;;;;;;;5098197;28;20047;-62
2022/01/07 10:17:54;;;;;;;29.50;18.88;;;;;;;;;;5064500;28;21230;-61
2022/01/07 10:20:22;;;;;;;31.10;19.40;;;;;;;;;;5097495;28;20036;-61
2022/01/07 10:22:56;;;;;;;30.58;19.63;;;;;;;;;;5094611;28;20134;-62
2022/01/07 10:25:23;;;;;;;31.75;18.42;;;;;;;;;;5098693;27;20032;-63
2022/01/07 10:27:50;;;;;;;28.33;19.05;;;;;;;;;;5080472;28;20093;-62
2022/01/07 10:30:26;;;;;;;27.48;20.05;;;;;;;;;;5077720;28;20032;-63
2022/01/07 10:32:53;;;;;;;25.75;16.73;;;;;;;;;;5061090;28;20097;-63
2022/01/07 10:35:20;;;;;;;29.20;18.80;;;;;;;;;;5059652;28;20104;-63
2022/01/07 10:37:46;;;;;;;21.83;13.77;;;;;;;;;;5095878;28;20036;-63
2022/01/07 10:40:32;;;;;;;16.13;13.70;;;;;;;;;;5095456;28;20457;-62
2022/01/07 10:43:14;;;;;;;20.45;12.18;;;;;;;;;;5062921;28;20052;-63
2022/01/07 10:45:50;;;;;;;12.23;7.85;;;;;;;;;;5076224;28;20117;-63
2022/01/07 10:48:17;;;;;;;10.70;6.22;;;;;;;;;;5075256;28;20067;-64
2022/01/07 10:50:50;;;;;;;10.05;4.80;;;;;;;;;;5096049;28;20125;-63
2022/01/07 10:53:27;;;;;;;6.05;3.13;;;;;;;;;;5100633;28;20192;-63
2022/01/07 10:55:59;;;;;;;7.38;3.30;;;;;;;;;;5097948;28;20039;-62
2022/01/07 10:58:25;;;;;;;5.18;2.88;;;;;;;;;;5076146;28;20500;-63
2022/01/07 11:00:51;;;;;;;6.25;2.00;;;;;;;;;;5098497;28;20516;-63
2022/01/07 11:03:17;;;;;;;5.88;2.10;;;;;;;;;;5076747;28;20489;-63
2022/01/07 11:05:44;;;;;;;4.70;2.28;;;;;;;;;;5074266;28;20031;-62
2022/01/07 11:08:10;;;;;;;7.28;2.70;;;;;;;;;;5077529;28;20427;-61
2022/01/07 11:10:36;;;;;;;6.15;2.33;;;;;;;;;;5080134;28;20641;-62
2022/01/07 11:13:03;;;;;;;9.73;4.32;;;;;;;;;;5079043;28;20507;-62
2022/01/07 11:15:29;;;;;;;4.78;2.42;;;;;;;;;;5091513;28;20482;-62
2022/01/07 11:17:55;;;;;;;5.22;2.17;;;;;;;;;;5075947;28;20184;-61
2022/01/07 11:20:24;;;;;;;5.93;3.00;;;;;;;;;;5080734;28;20469;-61
2022/01/07 11:22:51;;;;;;;4.55;2.55;;;;;;;;;;5076265;28;20111;-60
2022/01/07 11:25:17;;;;;;;5.63;2.90;;;;;;;;;;5072377;28;20039;-61
2022/01/07 11:27:48;;;;;;;6.55;3.00;;;;;;;;;;5060363;28;20393;-62
2022/01/07 11:30:23;;;;;;;6.80;2.80;;;;;;;;;;5095117;27;20046;-63
2022/01/07 11:32:50;;;;;;;5.82;2.40;;;;;;;;;;5077520;28;20560;-62
2022/01/07 11:35:19;;;;;;;6.25;1.80;;;;;;;;;;5077847;28;20074;-62
2022/01/07 11:37:45;;;;;;;3.83;1.23;;;;;;;;;;5072968;28;20040;-62
2022/01/07 11:40:27;;;;;;;5.03;1.42;;;;;;;;;;5070761;28;20044;-61
2022/01/07 11:42:53;;;;;;;4.93;1.30;;;;;;;;;;5072854;28;20059;-63
2022/01/07 11:45:28;;;;;;;3.35;1.02;;;;;;;;;;5089621;28;20043;-62
2022/01/07 11:48:13;;;;;;;4.40;1.40;;;;;;;;;;5090076;28;20191;-62
2022/01/07 11:51:08;;;;;;;5.60;1.30;;;;;;;;;;5108072;28;20046;-62
2022/01/07 11:53:43;;;;;;;4.18;1.83;;;;;;;;;;5078592;28;20378;-61
2022/01/07 11:56:11;;;;;;;5.47;1.83;;;;;;;;;;5053448;28;20161;-61
2022/01/07 11:58:38;;;;;;;5.95;1.10;;;;;;;;;;5069704;28;20435;-61
2022/01/07 12:01:04;;;;;;;7.95;1.52;;;;;;;;;;5070332;28;20047;-61
2022/01/07 12:03:35;;;;;;;6.45;1.70;;;;;;;;;;5073343;28;20504;-61
2022/01/07 12:06:25;;;;;;;6.45;1.92;;;;;;;;;;5091685;28;20051;-62
2022/01/07 12:11:29;;;;;;;6.10;1.95;;;;;;;;;;5075726;28;20040;-63
2022/01/07 12:13:56;;;;;;;6.50;2.60;;;;;;;;;;5080237;28;20048;-62
2022/01/07 12:16:23;;;;;;;7.38;2.92;;;;;;;;;;5096398;28;20040;-62
2022/01/07 12:18:49;;;;;;;7.75;2.55;;;;;;;;;;5094010;28;20035;-62
2022/01/07 12:21:16;;;;;;;8.93;2.47;;;;;;;;;;5077522;28;20039;-63
2022/01/07 12:23:42;;;;;;;8.55;3.40;;;;;;;;;;5081375;28;20054;-63
2022/01/07 12:26:09;;;;;;;9.77;3.75;;;;;;;;;;5059478;28;20460;-63
2022/01/07 12:28:40;;;;;;;9.23;3.67;;;;;;;;;;5080354;28;20057;-62
2022/01/07 12:31:11;;;;;;;11.10;4.00;;;;;;;;;;5077428;28;20032;-63
2022/01/07 12:33:49;;;;;;;10.95;4.30;;;;;;;;;;5073830;28;20040;-62
2022/01/07 12:36:35;;;;;;;14.80;4.30;;;;;;;;;;5061487;28;20426;-63
2022/01/07 12:39:08;;;;;;;10.85;4.30;;;;;;;;;;5092581;28;20059;-63
2022/01/07 12:41:35;;;;;;;11.63;4.30;;;;;;;;;;5077099;28;20046;-62
2022/01/07 12:44:12;;;;;;;11.10;3.92;;;;;;;;;;5052402;28;20139;-63
2022/01/07 12:46:40;;;;;;;10.63;4.53;;;;;;;;;;5059136;28;20040;-62
2022/01/07 12:49:06;;;;;;;11.40;5.75;;;;;;;;;;5064370;28;20092;-62
2022/01/07 12:51:34;;;;;;;13.20;5.57;;;;;;;;;;5079633;28;20112;-62
2022/01/07 12:54:01;;;;;;;12.63;6.43;;;;;;;;;;5097993;28;20497;-61
2022/01/07 12:56:38;;;;;;;14.90;6.88;;;;;;;;;;5069107;28;20077;-62
2022/01/07 12:59:11;;;;;;;17.38;7.00;;;;;;;;;;5071441;28;20044;-63
2022/01/07 13:01:37;;;;;;;;;;;;;;;;;;5086897;27;20039;-62
2022/01/07 13:04:04;;;;;;;16.08;7.80;;;;;;;;;;5115742;27;20151;-60
2022/01/07 13:06:31;;;;;;;14.07;7.07;;;;;;;;;;5093079;28;20052;-62
2022/01/07 13:08:58;;;;;;;16.30;7.03;;;;;;;;;;5111403;28;20493;-61
2022/01/07 13:11:24;;;;;;;14.95;6.25;;;;;;;;;;5102262;28;20048;-61
2022/01/07 13:14:06;;;;;;;14.98;5.65;;;;;;;;;;5071724;28;20056;-61
2022/01/07 13:16:33;;;;;;;10.50;4.97;;;;;;;;;;5090459;28;20040;-62
2022/01/07 13:19:09;;;;;;;14.20;5.07;;;;;;;;;;5073471;28;20376;-61
2022/01/07 13:21:37;;;;;;;9.57;4.05;;;;;;;;;;5097009;28;20369;-61
2022/01/07 13:24:04;;;;;;;10.90;3.30;;;;;;;;;;5090842;28;20041;-61
2022/01/07 13:26:31;;;;;;;5.63;1.95;;;;;;;;;;5096923;28;20047;-61
2022/01/07 13:28:59;;;;;;;5.78;1.98;;;;;;;;;;5088467;28;20417;-62
2022/01/07 13:31:29;;;;;;;8.30;1.80;;;;;;;;;;5082320;28;20071;-63
2022/01/07 13:33:55;;;;;;;5.35;1.77;;;;;;;;;;5081725;28;20044;-62
2022/01/07 13:36:21;;;;;;;6.40;1.85;;;;;;;;;;5074755;28;20039;-62
2022/01/07 13:39:01;;;;;;;6.38;1.63;;;;;;;;;;5084399;28;20054;-62
2022/01/07 13:41:27;;;;;;;8.80;1.77;;;;;;;;;;5101947;28;20110;-63
2022/01/07 13:43:53;;;;;;;5.40;1.20;;;;;;;;;;5106208;28;20390;-62
2022/01/07 13:46:23;;;;;;;5.75;1.02;;;;;;;;;;5100207;28;20370;-62
2022/01/07 13:48:52;;;;;;;7.40;1.50;;;;;;;;;;5093029;28;20393;-63
2022/01/07 13:51:18;;;;;;;6.10;0.73;;;;;;;;;;5088293;28;20036;-63
2022/01/07 13:54:03;;;;;;;5.75;1.00;;;;;;;;;;5059581;28;20054;-61
2022/01/07 13:56:29;;;;;;;6.57;0.95;;;;;;;;;;5098618;28;20038;-61
2022/01/07 13:58:59;;;;;;;9.07;0.80;;;;;;;;;;5073305;28;20406;-60
2022/01/07 14:01:25;;;;;;;9.02;1.00;;;;;;;;;;5079411;28;20370;-61
2022/01/07 14:03:52;;;;;;;7.38;1.42;;;;;;;;;;5097983;28;20655;-61
2022/01/07 14:06:22;;;;;;;5.97;1.30;;;;;;;;;;5068798;28;20051;-60
2022/01/07 14:08:48;;;;;;;8.32;1.00;;;;;;;;;;5100808;28;20048;-61
2022/01/07 14:11:15;;;;;;;7.35;1.35;;;;;;;;;;5108031;28;20035;-63
2022/01/07 14:13:42;;;;;;;6.03;0.80;;;;;;;;;;5087595;28;20042;-63
2022/01/07 14:16:08;;;;;;;8.25;1.02;;;;;;;;;;5090829;28;20544;-61
2022/01/07 14:18:37;;;;;;;7.65;0.82;;;;;;;;;;5072912;28;20122;-61
2022/01/07 14:21:04;;;;;;;9.85;1.13;;;;;;;;;;5076471;28;20404;-61
2022/01/07 14:23:32;;;;;;;9.35;1.17;;;;;;;;;;5074784;28;20102;-62
2022/01/07 14:26:18;;;;;;;8.38;1.08;;;;;;;;;;5066029;28;20078;-62
2022/01/07 14:28:46;;;;;;;7.35;0.95;;;;;;;;;;5086292;28;20046;-62
2022/01/07 14:31:13;;;;;;;8.90;1.15;;;;;;;;;;5098342;28;20040;-61
2022/01/07 14:33:42;;;;;;;7.07;1.48;;;;;;;;;;5082245;28;20191;-62
2022/01/07 14:36:08;;;;;;;8.07;1.30;;;;;;;;;;5079733;28;20066;-62
2022/01/07 14:38:35;;;;;;;11.45;1.55;;;;;;;;;;5083711;28;20078;-62
2022/01/07 14:41:01;;;;;;;10.20;1.48;;;;;;;;;;5070969;28;20421;-62